Time;durP1;ratioP1;P1;durP2;ratioP2;P2;SDS_P1;SDS_P2;PMS_P1;PMS_P2;Temp;Humidity;BMP_temperature;BMP_pressure;BME280_temperature;BME280_humidity;BME280_pressure;Samples;Min_cycle;Max_cycle;Signal;HPM_P1;HPM_P2
2023/10/26 00:00:39;;;;;;;1.65;1.38;;;;;;;-3.41;57.38;96243.59;6277390;28;20032;-62
2023/10/26 00:03:41;;;;;;;0.95;0.95;;;;;;;-3.36;57.05;96252.06;6285647;28;20477;-62
2023/10/26 00:06:45;;;;;;;1.52;1.13;;;;;;;-3.30;56.89;96262.25;6283424;28;20059;-62
2023/10/26 00:09:47;;;;;;;1.60;1.00;;;;;;;-3.33;56.67;96257.16;6278185;28;20079;-63
2023/10/26 00:12:49;;;;;;;1.65;1.10;;;;;;;-3.38;56.83;96264.97;6278894;28;20182;-62
2023/10/26 00:15:51;;;;;;;1.30;0.95;;;;;;;-3.33;56.62;96266.59;6280006;28;20040;-63
2023/10/26 00:18:54;;;;;;;0.93;0.90;;;;;;;-3.35;56.42;96270.94;6285904;28;20052;-62
2023/10/26 00:22:03;;;;;;;1.52;1.00;;;;;;;-3.51;56.77;96266.09;6259403;28;20041;-62
2023/10/26 00:25:07;;;;;;;1.50;0.98;;;;;;;-3.48;56.84;96272.88;6256502;28;20044;-62
2023/10/26 00:28:15;;;;;;;1.70;1.42;;;;;;;-3.43;56.45;96265.94;6281698;28;20047;-63
2023/10/26 00:31:18;;;;;;;1.58;1.17;;;;;;;-3.51;56.56;96271.25;6275194;28;20048;-62
2023/10/26 00:34:20;;;;;;;1.48;1.10;;;;;;;-3.40;56.64;96276.16;6277430;28;20415;-62
2023/10/26 00:37:23;;;;;;;1.30;1.17;;;;;;;-3.40;56.65;96271.00;6278185;28;20538;-62
2023/10/26 00:40:25;;;;;;;1.38;1.13;;;;;;;-3.48;56.87;96262.59;6275836;28;20448;-62
2023/10/26 00:43:28;;;;;;;;;;;;;;;-3.36;56.92;96279.53;6284531;28;20045;-62
2023/10/26 00:46:37;;;;;;;1.50;1.10;;;;;;;-3.38;56.92;96282.13;6283369;28;19927;-64
2023/10/26 00:49:40;;;;;;;1.48;1.13;;;;;;;-3.34;57.05;96288.91;6281451;28;20415;-63
2023/10/26 00:52:42;;;;;;;1.55;1.33;;;;;;;-3.31;57.17;96283.72;6283408;28;20053;-61
2023/10/26 00:55:48;;;;;;;2.65;1.10;;;;;;;-3.29;56.78;96287.06;6281768;28;20138;-63
2023/10/26 00:58:56;;;;;;;1.50;1.40;;;;;;;-3.34;56.89;96291.50;6281366;28;20037;-63
2023/10/26 01:02:02;;;;;;;2.90;1.27;;;;;;;-3.37;57.10;96296.66;6287771;28;20052;-63
2023/10/26 01:05:08;;;;;;;2.47;1.55;;;;;;;-3.33;56.79;96293.19;6289765;28;20740;-63
2023/10/26 01:08:15;;;;;;;1.77;1.25;;;;;;;-3.33;56.77;96294.91;6261735;28;20052;-63
2023/10/26 01:11:16;;;;;;;;;;;;;;;-3.24;56.51;96292.97;6287266;28;20515;-62
2023/10/26 01:14:19;;;;;;;1.73;0.98;;;;;;;-3.24;55.78;96295.56;6266442;28;20368;-62
2023/10/26 01:17:28;;;;;;;1.15;0.98;;;;;;;-3.30;55.80;96293.13;6288629;28;20111;-62
2023/10/26 01:20:34;;;;;;;1.77;1.20;;;;;;;-3.11;55.45;96295.31;6288343;28;20032;-63
2023/10/26 01:23:36;;;;;;;1.63;1.20;;;;;;;-3.26;55.42;96299.88;6277154;28;20424;-62
2023/10/26 01:26:42;;;;;;;1.10;1.00;;;;;;;-3.25;55.51;96301.59;6287460;28;20044;-63
2023/10/26 01:29:49;;;;;;;2.03;1.20;;;;;;;-3.40;55.75;96291.59;6287707;28;20044;-62
2023/10/26 01:32:50;;;;;;;2.50;1.38;;;;;;;-3.46;56.46;96296.84;6287313;28;20051;-62
2023/10/26 01:35:54;;;;;;;4.03;1.27;;;;;;;-3.51;56.54;96298.66;6285567;28;20052;-62
2023/10/26 01:38:56;;;;;;;2.33;1.00;;;;;;;-3.63;57.01;96285.16;6285612;28;20419;-61
2023/10/26 01:41:57;;;;;;;3.30;1.30;;;;;;;-3.79;57.50;96293.16;6280398;28;20045;-62
2023/10/26 01:45:02;;;;;;;3.17;1.90;;;;;;;-4.06;58.17;96291.06;6277773;28;20052;-62
2023/10/26 01:48:08;;;;;;;2.13;1.55;;;;;;;-4.32;58.90;96288.09;6288036;28;20437;-62
2023/10/26 01:51:10;;;;;;;2.40;1.55;;;;;;;-4.49;59.34;96284.94;6288781;28;20049;-63
2023/10/26 01:54:14;;;;;;;2.47;1.85;;;;;;;-4.62;59.51;96282.53;6281874;28;20041;-64
2023/10/26 01:57:17;;;;;;;2.80;2.10;;;;;;;-4.83;59.85;96288.84;6284635;28;20040;-63
2023/10/26 02:00:24;;;;;;;2.63;1.65;;;;;;;-4.99;60.86;96295.88;6271487;28;20048;-63
2023/10/26 02:03:32;;;;;;;3.45;1.77;;;;;;;-5.11;61.39;96300.34;6274832;28;20045;-62
2023/10/26 02:06:33;;;;;;;5.45;2.53;;;;;;;-5.21;61.58;96297.91;6279725;28;20047;-64
2023/10/26 02:09:35;;;;;;;3.08;2.00;;;;;;;-5.24;61.22;96294.50;6280001;28;20424;-63
2023/10/26 02:12:41;;;;;;;3.58;2.22;;;;;;;-5.26;61.44;96298.81;6282290;28;20044;-63
2023/10/26 02:15:45;;;;;;;4.88;2.10;;;;;;;-5.32;61.50;96301.44;6277058;28;20037;-64
2023/10/26 02:18:47;;;;;;;2.65;1.90;;;;;;;-5.32;61.60;96304.88;6267918;28;20032;-64
2023/10/26 02:21:52;;;;;;;5.55;3.35;;;;;;;-5.27;61.65;96307.34;6283825;28;20032;-62
2023/10/26 02:25:01;;;;;;;2.42;1.73;;;;;;;-5.20;61.30;96319.25;6282816;28;20037;-64
2023/10/26 02:28:03;;;;;;;1.95;1.30;;;;;;;-5.28;61.23;96315.94;6283678;28;20439;-63
2023/10/26 02:31:07;;;;;;;4.30;2.40;;;;;;;-5.37;61.79;96334.00;6262852;28;20037;-63
2023/10/26 02:34:11;;;;;;;3.05;2.10;;;;;;;-5.45;62.16;96331.50;6280857;28;20041;-63
2023/10/26 02:37:12;;;;;;;3.55;2.15;;;;;;;-5.57;62.14;96327.38;6286561;28;20049;-63
2023/10/26 02:40:17;;;;;;;4.85;2.75;;;;;;;-5.70;62.10;96320.66;6288456;28;20032;-64
2023/10/26 02:43:19;;;;;;;2.55;2.15;;;;;;;-5.63;62.10;96332.56;6261874;28;20205;-63
2023/10/26 02:46:20;;;;;;;3.42;1.80;;;;;;;-5.78;62.66;96333.53;6285721;28;20037;-63
2023/10/26 02:49:22;;;;;;;2.95;2.03;;;;;;;-5.83;62.09;96339.56;6281948;28;20083;-63
2023/10/26 02:52:23;;;;;;;6.53;2.95;;;;;;;-5.89;62.24;96336.22;6269998;28;20045;-63
2023/10/26 02:55:27;;;;;;;5.95;2.30;;;;;;;-5.90;63.19;96338.78;6287001;28;20045;-62
2023/10/26 02:58:31;;;;;;;2.92;1.88;;;;;;;-5.92;62.38;96346.47;6282192;28;20041;-63
2023/10/26 03:01:33;;;;;;;2.55;2.25;;;;;;;-5.85;62.10;96352.41;6278434;28;20546;-64
2023/10/26 03:04:41;;;;;;;2.33;1.98;;;;;;;-5.84;62.90;96348.13;6278023;28;20043;-63
2023/10/26 03:07:46;;;;;;;2.25;1.92;;;;;;;-5.87;62.27;96360.09;6281314;28;20514;-63
2023/10/26 03:10:48;;;;;;;2.03;1.40;;;;;;;-5.78;62.66;96364.28;6278962;28;20040;-63
2023/10/26 03:13:52;;;;;;;4.70;2.05;;;;;;;-5.76;62.24;96377.09;6277048;28;20179;-64
2023/10/26 03:16:56;;;;;;;2.40;1.73;;;;;;;-5.68;62.22;96383.00;6276355;28;20055;-62
2023/10/26 03:19:57;;;;;;;4.60;2.55;;;;;;;-5.69;62.72;96383.84;6283062;28;20070;-62
2023/10/26 03:23:04;;;;;;;3.90;1.80;;;;;;;-5.75;62.44;96395.00;6276085;28;20041;-62
2023/10/26 03:26:11;;;;;;;4.78;2.15;;;;;;;-5.77;62.73;96395.91;6279911;28;20059;-63
2023/10/26 03:29:16;;;;;;;1.90;1.50;;;;;;;-5.67;62.89;96394.94;6275266;28;20518;-62
2023/10/26 03:32:18;;;;;;;2.25;1.90;;;;;;;-5.48;62.79;96399.03;6278701;28;20126;-62
2023/10/26 03:35:22;;;;;;;1.70;1.60;;;;;;;-5.34;62.02;96398.06;6282666;28;20053;-63
2023/10/26 03:38:24;;;;;;;2.00;1.23;;;;;;;-5.30;61.91;96397.16;6278936;28;20044;-62
2023/10/26 03:41:28;;;;;;;2.50;1.85;;;;;;;-5.26;62.23;96403.97;6281890;28;20051;-64
2023/10/26 03:44:32;;;;;;;3.40;1.77;;;;;;;-5.24;62.12;96402.22;6279152;28;20499;-63
2023/10/26 03:47:43;;;;;;;2.53;1.75;;;;;;;-5.18;61.82;96407.25;6274724;28;20136;-62
2023/10/26 03:50:44;;;;;;;1.77;1.67;;;;;;;-5.12;61.83;96404.66;6279664;28;20044;-63
2023/10/26 03:53:48;;;;;;;6.82;1.48;;;;;;;-5.06;62.15;96411.44;6260504;28;20041;-61
2023/10/26 03:56:52;;;;;;;5.60;1.77;;;;;;;-4.98;61.55;96410.50;6271083;28;20045;-61
2023/10/26 03:59:53;;;;;;;4.00;2.20;;;;;;;-4.93;61.76;96412.13;6277866;28;20045;-63
2023/10/26 04:02:57;;;;;;;1.45;1.20;;;;;;;-4.82;61.50;96416.28;6279188;28;20044;-61
2023/10/26 04:06:00;;;;;;;1.45;1.27;;;;;;;-4.86;61.34;96398.38;6278899;28;20037;-63
2023/10/26 04:09:02;;;;;;;2.97;1.20;;;;;;;-4.57;60.55;96415.97;6279366;28;20049;-64
2023/10/26 04:12:04;;;;;;;1.52;1.40;;;;;;;-4.48;60.63;96420.16;6260479;28;20044;-63
2023/10/26 04:15:09;;;;;;;3.65;1.48;;;;;;;-4.33;60.07;96420.78;6282763;28;20526;-63
2023/10/26 04:18:10;;;;;;;1.40;1.13;;;;;;;-4.08;59.67;96426.44;6278767;28;20056;-63
2023/10/26 04:21:12;;;;;;;2.90;1.45;;;;;;;-3.87;59.04;96439.84;6279416;28;20041;-62
2023/10/26 04:24:17;;;;;;;2.80;1.60;;;;;;;-3.80;58.53;96433.72;6278812;28;20044;-62
2023/10/26 04:27:24;;;;;;;1.48;1.30;;;;;;;-3.76;58.27;96443.09;6280168;28;20623;-62
2023/10/26 04:30:26;;;;;;;1.60;1.50;;;;;;;-3.88;58.29;96438.13;6276755;28;20048;-63
2023/10/26 04:33:27;;;;;;;1.27;1.13;;;;;;;-3.88;58.32;96439.00;6259953;28;20172;-62
2023/10/26 04:36:29;;;;;;;5.07;1.40;;;;;;;-3.85;58.50;96440.63;6279860;28;20524;-64
2023/10/26 04:39:33;;;;;;;1.75;1.17;;;;;;;-3.82;58.03;96435.47;6286605;28;20115;-62
2023/10/26 04:42:34;;;;;;;3.20;2.00;;;;;;;-3.73;57.73;96450.75;6276722;28;20067;-64
2023/10/26 04:45:36;;;;;;;1.73;1.05;;;;;;;-3.56;57.13;96452.22;6282016;28;20068;-63
2023/10/26 04:48:37;;;;;;;2.40;1.23;;;;;;;-3.56;57.06;96455.63;6280773;28;20101;-62
2023/10/26 04:51:39;;;;;;;1.38;1.05;;;;;;;-3.46;56.75;96464.03;6280642;28;20045;-62
2023/10/26 04:54:41;;;;;;;3.58;1.27;;;;;;;-3.45;56.57;96458.88;6282662;28;20036;-63
2023/10/26 04:57:47;;;;;;;1.63;1.33;;;;;;;-3.33;56.37;96467.28;6288312;28;20040;-62
2023/10/26 05:00:50;;;;;;;;;;;;;;;-3.28;55.98;96471.47;6279544;28;20052;-62
2023/10/26 05:03:53;;;;;;;2.05;1.42;;;;;;;-3.16;55.31;96460.94;6283301;28;20046;-63
2023/10/26 05:06:59;;;;;;;5.95;2.70;;;;;;;-3.12;54.90;96471.19;6280478;28;20041;-62
2023/10/26 05:10:00;;;;;;;4.38;1.92;;;;;;;-2.88;55.04;96465.59;6277246;28;20048;-63
2023/10/26 05:13:03;;;;;;;2.60;2.05;;;;;;;1.06;49.62;96478.59;6279906;28;20048;-62
2023/10/26 05:16:12;;;;;;;3.72;1.38;;;;;;;5.78;40.19;96493.19;6284573;28;20041;-63
2023/10/26 05:19:17;;;;;;;2.60;2.15;;;;;;;9.42;35.02;96494.41;6279729;28;20049;-62
2023/10/26 05:22:23;;;;;;;4.65;4.00;;;;;;;11.58;30.73;96502.06;6280440;28;20102;-63
2023/10/26 05:25:31;;;;;;;5.75;4.50;;;;;;;13.22;28.41;96504.28;6283216;28;20044;-62
2023/10/26 05:28:36;;;;;;;6.90;4.40;;;;;;;14.91;27.02;96505.91;6262423;28;20056;-62
2023/10/26 05:31:37;;;;;;;4.70;3.78;;;;;;;16.23;25.86;96513.38;6280001;28;20123;-62
2023/10/26 05:34:38;;;;;;;1.67;1.58;;;;;;;16.29;23.77;96501.34;6284431;28;20537;-63
2023/10/26 05:37:40;;;;;;;1.30;0.80;;;;;;;16.17;23.98;96506.81;6264888;28;20072;-63
2023/10/26 05:40:49;;;;;;;2.55;1.20;;;;;;;15.17;24.44;96517.72;6287654;28;20652;-62
2023/10/26 05:43:54;;;;;;;3.47;1.75;;;;;;;15.79;23.50;96506.88;6279836;28;20048;-63
2023/10/26 05:46:56;;;;;;;1.90;1.00;;;;;;;17.11;21.90;96500.59;6281345;28;20051;-63
2023/10/26 05:49:57;;;;;;;2.35;1.42;;;;;;;17.67;20.46;96506.66;6285071;28;20527;-63
2023/10/26 05:52:59;;;;;;;1.10;1.00;;;;;;;18.60;20.49;96515.88;6283825;28;20049;-62
2023/10/26 05:56:00;;;;;;;2.83;0.70;;;;;;;18.56;19.19;96527.81;6280713;28;20055;-62
2023/10/26 05:59:02;;;;;;;2.30;0.80;;;;;;;18.98;19.68;96512.91;6282188;28;20045;-64
2023/10/26 06:02:06;;;;;;;2.17;0.60;;;;;;;18.93;19.13;96521.38;6284774;28;20041;-62
2023/10/26 06:05:08;;;;;;;1.05;0.75;;;;;;;18.41;19.87;96524.06;6284777;28;20122;-63
2023/10/26 06:08:12;;;;;;;1.17;0.70;;;;;;;18.93;18.84;96532.03;6264634;28;20074;-63
2023/10/26 06:11:16;;;;;;;0.98;0.60;;;;;;;20.15;17.90;96528.81;6282038;28;20421;-62
2023/10/26 06:14:22;;;;;;;2.13;0.75;;;;;;;19.71;17.59;96537.13;6278566;28;20116;-62
2023/10/26 06:17:26;;;;;;;0.73;0.43;;;;;;;19.72;17.46;96525.44;6280813;28;20066;-63
2023/10/26 06:20:32;;;;;;;0.98;0.60;;;;;;;20.82;17.00;96530.41;6282619;28;20131;-63
2023/10/26 06:23:36;;;;;;;1.70;0.50;;;;;;;22.67;15.78;96532.25;6279201;28;20090;-62
2023/10/26 06:26:38;;;;;;;1.45;0.32;;;;;;;23.86;15.02;96537.50;6284436;28;20048;-62
2023/10/26 06:29:42;;;;;;;1.10;0.45;;;;;;;24.82;14.29;96543.31;6255884;28;20420;-63
2023/10/26 06:32:45;;;;;;;0.50;0.30;;;;;;;25.48;13.77;96535.63;6282602;28;20041;-63
2023/10/26 06:35:51;;;;;;;0.40;0.30;;;;;;;26.79;13.35;96548.72;6276398;28;20041;-63
2023/10/26 06:38:54;;;;;;;0.77;0.30;;;;;;;26.75;13.31;96550.19;6286193;28;20052;-63
2023/10/26 06:41:56;;;;;;;0.95;0.50;;;;;;;27.89;12.66;96551.53;6281794;28;20040;-63
2023/10/26 06:44:57;;;;;;;0.75;0.40;;;;;;;28.90;11.90;96560.56;6272881;28;20494;-62
2023/10/26 06:48:01;;;;;;;0.45;0.32;;;;;;;29.42;11.40;96563.81;6281946;28;20432;-63
2023/10/26 06:51:05;;;;;;;0.35;0.30;;;;;;;27.29;11.12;96549.06;6280509;28;20508;-62
2023/10/26 06:54:13;;;;;;;0.80;0.52;;;;;;;24.44;13.49;96546.38;6277709;28;20053;-63
2023/10/26 06:57:20;;;;;;;0.20;0.20;;;;;;;24.41;13.71;96552.09;6279928;28;20040;-63
2023/10/26 07:00:21;;;;;;;0.77;0.30;;;;;;;26.04;12.17;96547.22;6276817;28;20044;-63
2023/10/26 07:03:26;;;;;;;0.65;0.30;;;;;;;24.12;12.46;96553.09;6280776;28;20131;-64
2023/10/26 07:06:30;;;;;;;0.40;0.25;;;;;;;24.27;12.69;96553.03;6276033;28;20416;-63
2023/10/26 07:09:32;;;;;;;1.30;1.20;;;;;;;23.98;12.73;96560.19;6279484;28;20149;-64
2023/10/26 07:12:36;;;;;;;0.95;0.90;;;;;;;21.43;14.48;96547.59;6278156;28;20076;-64
2023/10/26 07:15:38;;;;;;;0.65;0.60;;;;;;;22.61;13.50;96552.56;6277642;28;20143;-62
2023/10/26 07:18:40;;;;;;;3.50;0.82;;;;;;;23.84;12.63;96556.53;6279506;28;20079;-62
2023/10/26 07:21:44;;;;;;;0.45;0.40;;;;;;;24.59;12.69;96563.22;6276507;28;20041;-63
2023/10/26 07:24:49;;;;;;;0.63;0.30;;;;;;;25.21;12.50;96571.53;6287898;28;20048;-64
2023/10/26 07:27:53;;;;;;;0.50;0.30;;;;;;;25.58;11.69;96566.75;6277802;28;20040;-63
2023/10/26 07:30:58;;;;;;;0.38;0.38;;;;;;;26.51;11.67;96569.72;6278524;28;20040;-62
2023/10/26 07:33:59;;;;;;;0.93;0.40;;;;;;;28.34;10.79;96572.28;6282062;28;20044;-63
2023/10/26 07:37:00;;;;;;;0.28;0.10;;;;;;;29.08;10.47;96576.91;6282649;28;20045;-63
2023/10/26 07:40:03;;;;;;;0.52;0.20;;;;;;;29.69;10.06;96577.91;6275564;28;20053;-63
2023/10/26 07:43:08;;;;;;;1.17;0.30;;;;;;;26.92;10.76;96579.44;6280331;28;20064;-64
2023/10/26 07:46:09;;;;;;;3.28;0.70;;;;;;;21.60;13.74;96560.88;6275702;28;20396;-62
2023/10/26 07:49:36;;;;;;;1.70;0.38;;;;;;;17.91;16.31;96575.25;6276175;28;20139;-63
2023/10/26 07:52:57;;;;;;;0.70;0.60;;;;;;;14.80;17.83;96567.78;6277519;28;20041;-62
2023/10/26 07:56:01;;;;;;;1.50;0.40;;;;;;;11.75;20.71;96573.72;6279144;28;20695;-63
2023/10/26 07:59:08;;;;;;;1.73;0.45;;;;;;;11.60;21.22;96571.28;6271916;28;20093;-71
2023/10/26 08:02:13;;;;;;;1.90;0.40;;;;;;;15.68;17.97;96580.31;6278203;28;20036;-71
2023/10/26 08:05:17;;;;;;;5.43;0.60;;;;;;;19.66;15.16;96586.69;6279284;28;20040;-72
2023/10/26 08:08:23;;;;;;;0.60;0.30;;;;;;;21.64;13.76;96570.22;6262320;28;20049;-73
2023/10/26 08:11:30;;;;;;;3.30;0.85;;;;;;;18.64;15.43;96580.31;6277328;28;20432;-70
2023/10/26 08:14:32;;;;;;;1.85;0.70;;;;;;;14.06;18.26;96562.59;6281669;28;20063;-70
2023/10/26 08:17:41;;;;;;;2.60;0.80;;;;;;;11.17;21.09;96558.63;6268780;28;20053;-72
2023/10/26 08:20:51;;;;;;;0.73;0.52;;;;;;;13.25;19.67;96578.00;6283024;28;20044;-73
2023/10/26 08:23:58;;;;;;;1.88;0.80;;;;;;;16.59;17.05;96583.47;6289944;28;20104;-71
2023/10/26 08:26:59;;;;;;;0.85;0.57;;;;;;;18.65;15.79;96587.31;6288114;28;20140;-70
2023/10/26 08:30:10;;;;;;;1.17;0.40;;;;;;;20.41;14.63;96598.13;6280607;28;20049;-67
2023/10/26 08:33:15;;;;;;;0.52;0.30;;;;;;;21.03;14.12;96597.56;6262817;28;20051;-69
2023/10/26 08:36:23;;;;;;;0.60;0.40;;;;;;;20.80;13.96;96591.25;6279875;28;20093;-68
2023/10/26 08:39:30;;;;;;;1.75;0.40;;;;;;;21.28;13.88;96600.13;6284781;28;20052;-67
2023/10/26 08:42:40;;;;;;;1.00;0.30;;;;;;;18.25;15.59;96596.69;6282829;28;20044;-68
2023/10/26 08:45:45;;;;;;;2.28;0.60;;;;;;;15.14;18.00;96576.25;6284856;28;20041;-69
2023/10/26 08:48:54;;;;;;;0.88;0.40;;;;;;;11.93;20.76;96595.31;6268630;28;20045;-68
2023/10/26 08:51:57;;;;;;;0.63;0.30;;;;;;;13.89;19.44;96591.28;6282340;28;20041;-64
2023/10/26 08:55:05;;;;;;;5.03;0.52;;;;;;;12.82;20.38;96597.25;6280397;28;20063;-69
2023/10/26 08:58:07;;;;;;;5.60;0.70;;;;;;;12.56;21.11;96608.03;6287052;28;20032;-70
2023/10/26 09:01:15;;;;;;;0.40;0.40;;;;;;;14.08;19.73;96618.88;6289485;28;20040;-69
2023/10/26 09:04:20;;;;;;;0.60;0.30;;;;;;;15.08;18.53;96613.91;6283969;28;20051;-69
2023/10/26 09:07:27;;;;;;;1.25;0.40;;;;;;;16.30;17.49;96639.25;6278729;28;20126;-71
2023/10/26 09:10:32;;;;;;;0.93;0.20;;;;;;;17.33;16.82;96627.00;6278940;28;20068;-70
2023/10/26 09:13:36;;;;;;;1.05;0.50;;;;;;;17.93;15.91;96635.34;6267494;28;20040;-69
2023/10/26 09:16:43;;;;;;;0.10;0.10;;;;;;;18.68;15.45;96629.66;6279030;28;20048;-69
2023/10/26 09:19:46;;;;;;;0.55;0.35;;;;;;;19.85;14.88;96638.97;6285253;28;20139;-74
2023/10/26 09:22:55;;;;;;;1.95;0.60;;;;;;;20.30;14.71;96659.06;6270181;28;20041;-74
2023/10/26 09:26:04;;;;;;;2.55;0.55;;;;;;;16.84;16.75;96658.22;6291397;28;20040;-78
2023/10/26 09:29:09;;;;;;;1.95;0.50;;;;;;;12.33;19.40;96654.63;6283611;28;20048;-70
2023/10/26 09:32:11;;;;;;;2.30;0.45;;;;;;;9.18;22.05;96656.19;6285004;28;20040;-69
2023/10/26 09:35:24;;;;;;;3.22;0.45;;;;;;;7.31;23.89;96664.53;6280520;28;20504;-69
2023/10/26 09:38:36;;;;;;;3.10;0.47;;;;;;;5.85;25.94;96674.72;6268107;28;20143;-68
2023/10/26 09:41:40;;;;;;;2.22;0.50;;;;;;;6.66;25.14;96669.78;6287383;28;20128;-69
2023/10/26 09:44:46;;;;;;;1.58;0.77;;;;;;;9.29;22.52;96674.72;6285044;28;20187;-69
2023/10/26 09:47:53;;;;;;;1.88;1.00;;;;;;;8.64;22.93;96680.47;6280634;28;20096;-70
2023/10/26 09:51:00;;;;;;;11.45;4.63;;;;;;;10.89;21.30;96678.19;6269049;28;20045;-70
2023/10/26 09:54:08;;;;;;;12.88;6.50;;;;;;;13.44;19.19;96678.66;6283961;28;20049;-70
2023/10/26 09:57:28;;;;;;;2.25;1.13;;;;;;;14.76;17.81;96691.69;6278013;28;20630;-71
2023/10/26 10:00:34;;;;;;;0.77;0.60;;;;;;;15.96;17.10;96699.03;6283117;28;20047;-71
2023/10/26 10:03:45;;;;;;;0.68;0.60;;;;;;;16.50;16.68;96695.88;6285147;28;20207;-71
2023/10/26 10:06:50;;;;;;;1.50;1.30;;;;;;;17.28;16.17;96693.91;6280401;28;20036;-69
2023/10/26 10:10:01;;;;;;;2.58;0.70;;;;;;;17.23;15.91;96721.91;6279610;28;20210;-70
2023/10/26 10:13:04;;;;;;;0.82;0.30;;;;;;;16.45;16.47;96715.88;6280351;28;20040;-71
2023/10/26 10:16:34;;;;;;;1.33;0.60;;;;;;;15.94;16.55;96707.16;6278691;28;20127;-70
2023/10/26 10:19:40;;;;;;;1.90;0.40;;;;;;;14.98;16.81;96711.06;6274979;28;20083;-70
2023/10/26 10:22:44;;;;;;;2.63;0.60;;;;;;;13.45;17.78;96712.06;6284399;28;20036;-71
2023/10/26 10:25:55;;;;;;;2.17;0.47;;;;;;;10.78;20.00;96718.44;6281546;28;20071;-69
2023/10/26 10:29:16;;;;;;;0.90;0.70;;;;;;;7.79;23.08;96717.72;6281916;28;20091;-69
2023/10/26 10:32:43;;;;;;;1.75;0.77;;;;;;;5.08;26.29;96721.84;6261100;28;20041;-71
2023/10/26 10:36:00;;;;;;;3.88;0.88;;;;;;;3.76;28.60;96727.47;6281486;28;20037;-70
2023/10/26 10:39:22;;;;;;;2.70;0.98;;;;;;;2.69;30.81;96722.03;6264652;28;20634;-69
2023/10/26 10:42:24;;;;;;;1.35;0.60;;;;;;;2.61;31.18;96744.81;6279158;28;21013;-70
2023/10/26 10:45:26;;;;;;;1.05;0.35;;;;;;;4.08;28.83;96738.34;6276713;28;20056;-69
2023/10/26 10:48:27;;;;;;;1.50;0.60;;;;;;;5.32;27.41;96745.97;6280939;28;20043;-71
2023/10/26 10:51:39;;;;;;;1.98;0.52;;;;;;;5.91;26.19;96741.44;6281860;28;20381;-69
2023/10/26 10:54:49;;;;;;;1.52;0.60;;;;;;;4.75;27.17;96743.28;6282747;28;20049;-69
2023/10/26 10:58:01;;;;;;;2.40;0.70;;;;;;;4.71;27.77;96752.16;6282435;28;20057;-70
2023/10/26 11:01:05;;;;;;;3.38;0.73;;;;;;;6.01;26.15;96698.34;6276531;28;20094;-70
2023/10/26 11:04:12;;;;;;;0.73;0.40;;;;;;;7.33;24.91;96749.91;6278803;28;20071;-71
2023/10/26 11:07:23;;;;;;;2.88;0.70;;;;;;;8.08;23.91;96755.38;6279260;28;20040;-70
2023/10/26 11:10:24;;;;;;;2.35;0.60;;;;;;;8.46;23.59;96762.84;6283748;28;20558;-70
2023/10/26 11:13:29;;;;;;;0.70;0.40;;;;;;;8.24;23.79;96758.81;6283301;28;20076;-70
2023/10/26 11:16:30;;;;;;;2.42;0.77;;;;;;;7.56;24.66;96772.22;6282054;28;20121;-70
2023/10/26 11:19:37;;;;;;;2.55;0.85;;;;;;;7.26;25.26;96779.09;6275305;28;20098;-70
2023/10/26 11:22:41;;;;;;;0.85;0.47;;;;;;;7.51;24.68;96774.25;6282506;28;20076;-70
2023/10/26 11:25:47;;;;;;;0.88;0.60;;;;;;;7.41;25.06;96797.44;6255093;28;20550;-70
2023/10/26 11:28:54;;;;;;;0.85;0.60;;;;;;;7.16;25.19;96776.97;6266650;28;20036;-70
2023/10/26 11:32:01;;;;;;;1.17;0.60;;;;;;;6.71;25.53;96756.69;6282337;28;20041;-69
2023/10/26 11:35:13;;;;;;;3.22;0.70;;;;;;;5.08;27.69;96774.00;6275693;28;20047;-70
2023/10/26 11:38:18;;;;;;;3.15;0.73;;;;;;;3.41;29.54;96780.91;6283424;28;20040;-69
2023/10/26 11:41:28;;;;;;;2.95;1.27;;;;;;;2.21;31.38;96780.78;6277502;28;20037;-69
2023/10/26 11:44:36;;;;;;;1.92;1.00;;;;;;;1.76;32.64;96777.94;6283922;28;20052;-70
2023/10/26 11:47:48;;;;;;;0.65;0.50;;;;;;;1.89;32.70;96787.00;6285040;28;20060;-70
2023/10/26 11:50:55;;;;;;;1.65;0.65;;;;;;;2.01;32.63;96797.03;6279069;28;20045;-69
2023/10/26 11:54:11;;;;;;;2.00;0.57;;;;;;;1.91;33.41;96794.75;6282192;28;20175;-70
2023/10/26 11:57:13;;;;;;;1.10;0.60;;;;;;;1.99;33.50;96803.16;6274993;28;20056;-71
2023/10/26 12:00:16;;;;;;;1.25;0.60;;;;;;;1.71;34.24;96813.53;6286832;28;20041;-72
2023/10/26 12:03:20;;;;;;;2.80;0.88;;;;;;;1.62;34.36;96812.09;6270142;28;20041;-71
2023/10/26 12:06:24;;;;;;;1.83;0.75;;;;;;;1.37;35.30;96813.72;6281523;28;20044;-73
2023/10/26 12:09:29;;;;;;;4.10;1.10;;;;;;;1.02;35.60;96820.72;6277658;28;20101;-71
2023/10/26 12:12:38;;;;;;;0.90;0.70;;;;;;;0.73;35.46;96818.94;6278123;28;20145;-71
2023/10/26 12:15:44;;;;;;;5.47;0.90;;;;;;;0.61;36.59;96822.72;6276998;28;20539;-76
2023/10/26 12:18:48;;;;;;;3.78;0.77;;;;;;;0.65;37.37;96835.56;6275971;28;20045;-73
2023/10/26 12:21:56;;;;;;;2.95;0.73;;;;;;;0.50;37.49;96842.84;6278458;28;20048;-76
2023/10/26 12:25:04;;;;;;;2.78;0.57;;;;;;;0.50;38.18;96850.63;6278665;28;20044;-75
2023/10/26 12:28:10;;;;;;;0.60;0.45;;;;;;;0.34;38.16;96848.44;6282011;28;20068;-74
2023/10/26 12:31:17;;;;;;;2.17;0.90;;;;;;;0.11;38.20;96853.28;6279873;28;20033;-75
2023/10/26 12:34:24;;;;;;;3.60;1.92;;;;;;;-0.11;39.14;96861.56;6282375;28;20110;-76
2023/10/26 12:37:29;;;;;;;9.88;4.18;;;;;;;-0.38;39.96;96867.34;6282091;28;20040;-75
2023/10/26 12:40:37;;;;;;;4.97;2.45;;;;;;;-0.68;40.79;96867.09;6278805;28;20415;-74
2023/10/26 12:43:39;;;;;;;3.15;2.08;;;;;;;-0.91;41.31;96873.59;6263065;28;20048;-74
2023/10/26 12:46:45;;;;;;;3.60;1.48;;;;;;;-1.14;42.14;96880.91;6279330;28;20135;-75
2023/10/26 12:49:49;;;;;;;2.80;1.70;;;;;;;-1.31;42.87;96859.72;6281097;28;20566;-75
2023/10/26 12:52:54;;;;;;;5.50;1.98;;;;;;;-1.39;42.83;96889.13;6276697;28;20389;-76
2023/10/26 12:55:58;;;;;;;3.42;2.00;;;;;;;-1.60;43.67;96894.63;6270909;28;20055;-76
2023/10/26 12:59:02;;;;;;;4.22;1.67;;;;;;;-1.77;43.52;96888.91;6286651;28;20044;-76
2023/10/26 13:02:07;;;;;;;7.60;2.47;;;;;;;-1.92;43.92;96898.59;6286605;28;20052;-76
2023/10/26 13:05:12;;;;;;;9.27;3.60;;;;;;;-1.93;44.18;96901.16;6285585;28;20339;-75
2023/10/26 13:08:14;;;;;;;14.30;3.80;;;;;;;-2.05;44.54;96907.38;6276153;28;20072;-74
2023/10/26 13:11:19;;;;;;;9.07;3.38;;;;;;;-2.15;45.06;96911.81;6281622;28;20045;-69
2023/10/26 13:14:25;;;;;;;7.35;3.15;;;;;;;-2.28;45.06;96908.53;6276715;28;20542;-70
2023/10/26 13:17:32;;;;;;;11.43;4.15;;;;;;;-2.37;45.28;96913.84;6284908;28;20495;-70
2023/10/26 13:20:34;;;;;;;19.13;5.35;;;;;;;-2.42;45.14;96912.19;6278555;28;20041;-68
2023/10/26 13:23:43;;;;;;;14.60;5.15;;;;;;;-2.55;45.34;96911.47;6282706;28;20078;-69
2023/10/26 13:26:46;;;;;;;14.50;4.90;;;;;;;-2.64;45.65;96922.75;6285793;28;20066;-70
2023/10/26 13:29:53;;;;;;;12.45;5.75;;;;;;;-2.80;46.23;96924.66;6280218;28;20075;-70
2023/10/26 13:32:54;;;;;;;10.02;4.15;;;;;;;-2.86;46.70;96927.31;6277326;28;20041;-69
2023/10/26 13:35:59;;;;;;;7.95;4.80;;;;;;;-2.91;46.68;96923.94;6277433;28;20048;-70
2023/10/26 13:39:03;;;;;;;9.65;5.97;;;;;;;-2.78;46.96;96946.09;6282239;28;20047;-69
2023/10/26 13:42:05;;;;;;;;;;;;;;;-2.83;46.00;96941.84;6282025;28;20139;-69
2023/10/26 13:45:06;;;;;;;21.33;8.15;;;;;;;-2.88;46.88;96947.06;6281783;28;20086;-71
2023/10/26 13:48:10;;;;;;;20.48;7.68;;;;;;;-3.00;46.72;96949.75;6279522;28;20119;-70
2023/10/26 13:51:19;;;;;;;17.58;6.65;;;;;;;-3.01;47.31;96958.34;6284036;28;20079;-70
2023/10/26 13:54:21;;;;;;;13.75;5.90;;;;;;;-3.00;47.19;96954.91;6282209;28;20805;-68
2023/10/26 13:57:24;;;;;;;12.13;4.45;;;;;;;-2.99;47.76;96961.78;6282655;28;20036;-68
2023/10/26 14:00:29;;;;;;;12.65;3.95;;;;;;;-3.11;47.17;96967.03;6286588;28;20052;-75
2023/10/26 14:03:33;;;;;;;6.38;2.35;;;;;;;-3.14;47.63;96975.66;6272511;28;20040;-69
2023/10/26 14:06:34;;;;;;;6.90;3.45;;;;;;;-3.23;47.68;96968.88;6283618;28;20051;-70
2023/10/26 14:09:38;;;;;;;6.75;2.97;;;;;;;-3.29;47.77;96974.06;6283356;28;20054;-68
2023/10/26 14:12:41;;;;;;;4.00;2.60;;;;;;;-3.27;48.10;96977.47;6279013;28;20045;-70
2023/10/26 14:15:42;;;;;;;5.28;2.33;;;;;;;-3.21;48.61;96979.13;6280701;28;20045;-77
2023/10/26 14:18:47;;;;;;;5.93;2.40;;;;;;;-3.21;49.04;96982.56;6280471;28;20846;-70
2023/10/26 14:21:52;;;;;;;3.80;2.05;;;;;;;-3.32;48.92;96989.53;6279185;28;20048;-68
2023/10/26 14:24:55;;;;;;;;;;;;;;;-3.36;48.75;96998.13;6280427;28;20041;-70
2023/10/26 14:28:04;;;;;;;3.00;2.15;;;;;;;-3.42;49.29;96998.19;6281401;28;20299;-68
2023/10/26 14:31:09;;;;;;;2.28;1.73;;;;;;;-3.54;49.21;96995.69;6280128;28;20048;-71
2023/10/26 14:34:10;;;;;;;2.40;1.48;;;;;;;-3.50;49.67;97010.25;6281110;28;20040;-69